createdAt,value
2023-10-16T00:01:44.622Z,3.00
2023-10-16T00:04:12.870Z,6.03
2023-10-16T00:06:40.289Z,2.90
2023-10-16T00:09:19.515Z,2.97
2023-10-16T00:11:48.286Z,3.00
2023-10-16T00:14:24.711Z,3.10
2023-10-16T00:16:52.627Z,3.30
2023-10-16T00:19:19.941Z,3.40
2023-10-16T00:21:47.725Z,2.93
2023-10-16T00:24:16.353Z,2.80
2023-10-16T00:26:50.356Z,2.70
2023-10-16T00:29:39.894Z,2.90
2023-10-16T00:32:08.515Z,2.90
2023-10-16T00:34:35.898Z,2.90
2023-10-16T00:37:03.208Z,3.47
2023-10-16T00:39:30.739Z,3.00
2023-10-16T00:42:01.722Z,3.30
2023-10-16T00:44:35.963Z,3.03
2023-10-16T00:47:05.345Z,3.30
2023-10-16T00:49:35.463Z,3.53
2023-10-16T00:52:06.357Z,2.87
2023-10-16T00:54:41.495Z,3.30
2023-10-16T00:57:09.870Z,3.07
2023-10-16T00:59:37.952Z,3.23
2023-10-16T01:02:18.657Z,3.17
2023-10-16T01:04:48.809Z,3.20
2023-10-16T01:07:17.240Z,2.93
2023-10-16T01:09:45.541Z,2.80
2023-10-16T01:12:12.995Z,3.10
2023-10-16T01:14:41.151Z,3.40
2023-10-16T01:17:12.172Z,3.50
2023-10-16T01:19:42.382Z,3.37
2023-10-16T01:22:12.944Z,3.00
2023-10-16T01:24:45.456Z,2.80
2023-10-16T01:27:27.698Z,3.23
2023-10-16T01:29:56.098Z,2.90
2023-10-16T01:32:23.435Z,2.90
2023-10-16T01:34:51.544Z,3.50
2023-10-16T01:37:19.796Z,3.40
2023-10-16T01:39:51.256Z,2.90
2023-10-16T01:42:20.366Z,3.23
2023-10-16T01:44:48.511Z,3.23
2023-10-16T01:47:18.928Z,3.67
2023-10-16T01:49:49.459Z,3.60
2023-10-16T01:52:17.070Z,3.83
2023-10-16T01:54:50.251Z,3.20
2023-10-16T01:57:17.685Z,3.03
2023-10-16T01:59:49.327Z,3.10
2023-10-16T02:02:19.004Z,3.27
2023-10-16T02:04:46.722Z,3.10
2023-10-16T02:07:14.071Z,3.07
2023-10-16T02:09:42.466Z,3.03
2023-10-16T02:12:16.580Z,2.80
2023-10-16T02:14:45.982Z,3.67
2023-10-16T02:17:24.417Z,3.63
2023-10-16T02:19:52.570Z,3.20
2023-10-16T02:22:23.508Z,3.07
2023-10-16T02:24:51.644Z,3.73
2023-10-16T02:27:22.571Z,3.60
2023-10-16T02:29:53.839Z,3.10
2023-10-16T02:32:24.436Z,3.03
2023-10-16T02:34:52.027Z,3.30
2023-10-16T02:37:22.187Z,3.30
2023-10-16T02:39:55.453Z,3.90
2023-10-16T02:42:26.964Z,3.40
2023-10-16T02:44:55.432Z,3.10
2023-10-16T02:47:29.095Z,3.47
2023-10-16T02:49:58.319Z,3.53
2023-10-16T02:52:26.570Z,3.20
2023-10-16T02:54:58.778Z,3.90
2023-10-16T02:57:26.720Z,3.77
2023-10-16T02:59:54.119Z,3.50
2023-10-16T03:02:24.786Z,3.20
2023-10-16T03:05:03.608Z,3.23
2023-10-16T03:07:30.817Z,3.70
2023-10-16T03:09:58.159Z,3.50
2023-10-16T03:12:25.568Z,3.60
2023-10-16T03:14:58.831Z,3.37
2023-10-16T03:17:32.727Z,3.57
2023-10-16T03:20:00.291Z,3.20
2023-10-16T03:22:27.618Z,3.30
2023-10-16T03:25:00.842Z,3.47
2023-10-16T03:27:30.155Z,3.10
2023-10-16T03:29:57.956Z,3.73
2023-10-16T03:32:25.768Z,3.27
2023-10-16T03:34:53.372Z,3.63
2023-10-16T03:37:21.048Z,3.83
2023-10-16T03:39:48.360Z,3.30
2023-10-16T03:42:19.021Z,3.80
2023-10-16T03:44:46.520Z,3.87
2023-10-16T03:47:15.714Z,4.90
2023-10-16T03:49:43.004Z,3.87
2023-10-16T03:52:10.270Z,3.43
2023-10-16T03:54:37.703Z,3.17
2023-10-16T03:57:11.398Z,3.80
2023-10-16T03:59:44.005Z,3.73
2023-10-16T04:02:18.436Z,3.70
2023-10-16T04:04:45.783Z,3.67
2023-10-16T04:07:15.526Z,3.80
2023-10-16T04:09:51.954Z,3.20
2023-10-16T04:12:22.863Z,3.67
2023-10-16T04:14:56.305Z,3.47
2023-10-16T04:17:28.250Z,3.73
2023-10-16T04:20:01.036Z,3.47
2023-10-16T04:22:44.226Z,3.10
2023-10-16T04:25:20.467Z,4.30
2023-10-16T04:27:50.851Z,3.43
2023-10-16T04:30:18.232Z,3.47
2023-10-16T04:32:57.958Z,4.00
2023-10-16T04:35:51.200Z,3.63
2023-10-16T04:38:53.473Z,3.47
2023-10-16T04:41:41.499Z,3.43
2023-10-16T04:44:45.366Z,3.67
2023-10-16T04:47:18.605Z,3.70
2023-10-16T04:50:01.034Z,3.30
2023-10-16T04:52:57.907Z,3.27
2023-10-16T04:55:41.654Z,3.87
2023-10-16T04:58:21.129Z,3.20
2023-10-16T05:00:58.990Z,3.10
2023-10-16T05:03:37.053Z,3.57
2023-10-16T05:06:06.728Z,4.03
2023-10-16T05:08:50.176Z,3.43
2023-10-16T05:11:34.717Z,4.10
2023-10-16T05:14:18.446Z,3.20
2023-10-16T05:17:08.395Z,3.50
2023-10-16T05:19:36.265Z,3.10
2023-10-16T05:22:04.203Z,3.23
2023-10-16T05:24:53.017Z,3.53
2023-10-16T05:27:39.402Z,4.00
2023-10-16T05:30:25.975Z,3.40
2023-10-16T05:33:12.439Z,3.40
2023-10-16T05:35:58.538Z,3.37
2023-10-16T05:38:44.404Z,3.30
2023-10-16T05:41:31.784Z,3.50
2023-10-16T05:44:17.988Z,3.30
2023-10-16T05:47:04.316Z,3.67
2023-10-16T05:49:50.151Z,3.57
2023-10-16T05:52:36.087Z,3.57
2023-10-16T05:55:22.360Z,3.63
2023-10-16T05:58:08.496Z,3.47
2023-10-16T06:00:54.511Z,3.23
2023-10-16T06:03:40.633Z,3.93
2023-10-16T06:06:26.680Z,3.30
2023-10-16T06:09:12.555Z,3.20
2023-10-16T06:11:58.602Z,3.20
2023-10-16T06:14:27.088Z,3.60
2023-10-16T06:16:54.822Z,3.50
2023-10-16T06:19:24.541Z,3.57
2023-10-16T06:21:58.381Z,3.77
2023-10-16T06:24:27.628Z,3.40
2023-10-16T06:26:55.538Z,3.20
2023-10-16T06:29:26.040Z,3.57
2023-10-16T06:31:59.977Z,4.07
2023-10-16T06:34:30.019Z,4.90
2023-10-16T06:36:58.013Z,3.47
2023-10-16T06:39:29.876Z,3.67
2023-10-16T06:41:57.295Z,3.70
2023-10-16T06:44:30.765Z,3.37
2023-10-16T06:47:01.608Z,3.95
2023-10-16T06:49:36.874Z,3.70
2023-10-16T06:52:07.546Z,3.60
2023-10-16T06:54:41.423Z,4.13
2023-10-16T06:57:15.178Z,3.63
2023-10-16T06:59:56.810Z,3.60
2023-10-16T07:02:24.094Z,3.63
2023-10-16T07:04:51.379Z,3.60
2023-10-16T07:07:23.703Z,3.40
2023-10-16T07:09:51.078Z,3.37
2023-10-16T07:12:20.607Z,3.20
2023-10-16T07:14:57.715Z,3.40
2023-10-16T07:17:29.344Z,3.53
2023-10-16T07:20:16.765Z,3.60
2023-10-16T07:22:43.993Z,3.20
2023-10-16T07:25:27.648Z,3.30
2023-10-16T07:27:59.493Z,3.30
2023-10-16T07:30:28.832Z,3.57
2023-10-16T07:32:56.661Z,3.60
2023-10-16T07:35:24.148Z,3.40
2023-10-16T07:37:57.567Z,3.30
2023-10-16T07:40:27.068Z,3.57
2023-10-16T07:42:54.529Z,3.30
2023-10-16T07:45:21.845Z,3.40
2023-10-16T07:47:52.660Z,3.50
2023-10-16T07:50:20.430Z,3.20
2023-10-16T07:52:48.123Z,3.57
2023-10-16T07:55:33.926Z,3.50
2023-10-16T07:58:03.259Z,3.50
2023-10-16T08:00:43.104Z,3.27
2023-10-16T08:03:15.238Z,3.40
2023-10-16T08:05:48.422Z,3.30
2023-10-16T08:08:16.913Z,3.40
2023-10-16T08:10:44.760Z,3.60
2023-10-16T08:13:15.368Z,3.53
2023-10-16T08:15:53.109Z,3.53
2023-10-16T08:18:20.918Z,3.33
2023-10-16T08:21:01.287Z,3.47
2023-10-16T08:23:35.475Z,3.33
2023-10-16T08:26:16.166Z,3.50
2023-10-16T08:28:46.747Z,3.20
2023-10-16T08:31:26.833Z,3.13
2023-10-16T08:33:59.127Z,3.33
2023-10-16T08:36:26.583Z,3.00
2023-10-16T08:38:54.217Z,3.00
2023-10-16T08:41:31.909Z,3.27
2023-10-16T08:44:07.719Z,3.50
2023-10-16T08:46:46.278Z,3.33
2023-10-16T08:49:14.198Z,3.10
2023-10-16T08:51:41.663Z,3.03
2023-10-16T08:54:28.930Z,3.47
2023-10-16T08:56:56.886Z,3.03
2023-10-16T08:59:28.671Z,3.30
2023-10-16T09:01:56.302Z,3.07
2023-10-16T09:04:26.894Z,2.90
2023-10-16T09:06:54.409Z,3.10
2023-10-16T09:09:22.088Z,3.37
2023-10-16T09:11:50.257Z,3.23
2023-10-16T09:14:22.345Z,3.37
2023-10-16T09:16:53.403Z,3.00
2023-10-16T09:19:21.390Z,3.77
2023-10-16T09:21:54.494Z,3.07
2023-10-16T09:24:22.202Z,3.30
2023-10-16T09:26:55.796Z,3.20
2023-10-16T09:29:26.674Z,3.20
2023-10-16T09:31:54.442Z,2.90
2023-10-16T09:34:27.456Z,2.90
2023-10-16T09:37:13.495Z,3.30
2023-10-16T09:39:50.745Z,2.97
2023-10-16T09:42:25.692Z,3.20
2023-10-16T09:45:09.835Z,2.93
2023-10-16T09:47:49.520Z,2.80
2023-10-16T09:50:18.485Z,2.90
2023-10-16T09:52:47.117Z,3.30
2023-10-16T09:55:14.680Z,3.23
2023-10-16T09:57:57.126Z,3.07
2023-10-16T10:00:30.295Z,3.00
2023-10-16T10:03:09.082Z,2.87
2023-10-16T10:05:49.280Z,2.80
2023-10-16T10:08:28.730Z,2.60
2023-10-16T10:11:29.340Z,3.07
2023-10-16T10:14:30.612Z,2.80
2023-10-16T10:17:02.608Z,3.00
2023-10-16T10:19:40.558Z,3.00
2023-10-16T10:22:24.019Z,2.70
2023-10-16T10:25:18.669Z,2.93
2023-10-16T10:27:48.999Z,2.60
2023-10-16T10:30:18.917Z,3.03
2023-10-16T10:32:53.999Z,2.97
2023-10-16T10:35:23.499Z,3.37
2023-10-16T10:37:53.109Z,2.73
2023-10-16T10:40:23.483Z,3.03
2023-10-16T10:42:58.379Z,2.80
2023-10-16T10:45:35.580Z,2.80
2023-10-16T10:48:10.960Z,2.60
2023-10-16T10:50:41.997Z,3.07
2023-10-16T10:53:15.798Z,2.90
2023-10-16T10:55:58.926Z,2.90
2023-10-16T10:58:39.282Z,2.80
2023-10-16T11:01:26.925Z,2.60
2023-10-16T11:03:56.385Z,2.70
2023-10-16T11:06:43.502Z,4.10
2023-10-16T11:09:14.254Z,2.53
2023-10-16T11:11:41.778Z,2.60
2023-10-16T11:14:09.075Z,2.63
2023-10-16T11:16:46.532Z,2.50
2023-10-16T11:19:20.161Z,2.60
2023-10-16T11:21:48.758Z,2.67
2023-10-16T11:24:16.167Z,2.50
2023-10-16T11:26:43.850Z,2.70
2023-10-16T11:29:14.039Z,2.80
2023-10-16T11:31:45.785Z,2.67
2023-10-16T11:34:21.215Z,2.60
2023-10-16T11:36:52.294Z,2.47
2023-10-16T11:39:23.043Z,2.53
2023-10-16T11:41:50.809Z,2.63
2023-10-16T11:44:18.466Z,2.80
2023-10-16T11:46:54.684Z,2.77
2023-10-16T11:49:22.385Z,2.50
2023-10-16T11:51:59.305Z,2.57
2023-10-16T11:54:27.812Z,2.60
2023-10-16T11:56:59.618Z,2.30
2023-10-16T11:59:28.464Z,2.50
2023-10-16T12:02:03.860Z,2.60
2023-10-16T12:04:32.736Z,2.87
2023-10-16T12:07:00.803Z,2.60
2023-10-16T12:09:37.590Z,2.40
2023-10-16T12:12:08.039Z,2.33
2023-10-16T12:14:38.592Z,2.40
2023-10-16T12:17:13.248Z,2.70
2023-10-16T12:19:41.458Z,2.50
2023-10-16T12:22:10.246Z,2.23
2023-10-16T12:24:37.756Z,2.30
2023-10-16T12:27:05.777Z,2.20
2023-10-16T12:29:33.021Z,2.10
2023-10-16T12:32:03.824Z,2.20
2023-10-16T12:34:34.511Z,2.43
2023-10-16T12:37:02.386Z,2.10
2023-10-16T12:39:31.432Z,2.47
2023-10-16T12:42:06.554Z,2.30
2023-10-16T12:44:34.050Z,2.60
2023-10-16T12:47:01.672Z,2.10
2023-10-16T12:49:29.662Z,2.10
2023-10-16T12:51:57.026Z,2.17
2023-10-16T12:57:13.035Z,2.30
2023-10-16T12:59:40.246Z,2.10
2023-10-16T13:02:10.593Z,2.47
2023-10-16T13:04:38.263Z,2.40
2023-10-16T13:07:05.692Z,2.20
2023-10-16T13:09:33.033Z,2.07
2023-10-16T13:12:00.706Z,2.23
2023-10-16T13:14:28.246Z,2.30
2023-10-16T13:16:55.702Z,2.00
2023-10-16T13:19:23.004Z,2.07
2023-10-16T13:21:53.395Z,2.00
2023-10-16T13:24:24.874Z,2.37
2023-10-16T13:26:53.852Z,2.23
2023-10-16T13:29:21.917Z,2.10
2023-10-16T13:31:50.020Z,2.13
2023-10-16T13:34:19.545Z,2.53
2023-10-16T13:37:09.797Z,2.00
2023-10-16T13:39:40.523Z,2.10
2023-10-16T13:42:11.497Z,2.00
2023-10-16T13:44:38.966Z,2.17
2023-10-16T13:47:06.820Z,3.17
2023-10-16T13:49:38.217Z,2.10
2023-10-16T13:52:09.312Z,2.23
2023-10-16T13:54:42.003Z,2.23
2023-10-16T13:57:09.628Z,2.20
2023-10-16T13:59:37.101Z,2.17
2023-10-16T14:02:06.374Z,2.20
2023-10-16T14:04:36.937Z,2.00
2023-10-16T14:07:11.188Z,2.03
2023-10-16T14:09:39.328Z,2.20
2023-10-16T14:12:06.829Z,2.30
2023-10-16T14:14:34.794Z,2.20
2023-10-16T14:17:05.853Z,2.00
2023-10-16T14:19:34.037Z,2.30
2023-10-16T14:22:07.708Z,2.30
2023-10-16T14:24:35.492Z,2.10
2023-10-16T14:27:02.829Z,2.20
2023-10-16T14:29:30.058Z,2.13
2023-10-16T14:31:59.439Z,2.13
2023-10-16T14:34:28.323Z,2.20
2023-10-16T14:36:56.707Z,2.30
2023-10-16T14:39:30.272Z,2.17
2023-10-16T14:41:58.725Z,1.90
2023-10-16T14:44:25.991Z,2.43
2023-10-16T14:46:54.012Z,2.30
2023-10-16T14:49:26.321Z,2.20
2023-10-16T14:51:54.918Z,2.57
2023-10-16T14:54:27.512Z,2.13
2023-10-16T14:57:00.290Z,2.10
2023-10-16T14:59:36.744Z,2.37
2023-10-16T15:02:04.637Z,2.07
2023-10-16T15:04:32.642Z,2.20
2023-10-16T15:07:06.000Z,2.13
2023-10-16T15:09:33.930Z,3.43
2023-10-16T15:12:01.207Z,2.27
2023-10-16T15:14:30.398Z,2.30
2023-10-16T15:16:57.944Z,2.20
2023-10-16T15:19:28.483Z,2.37
2023-10-16T15:21:56.262Z,2.00
2023-10-16T15:24:23.784Z,2.00
2023-10-16T15:26:51.052Z,2.20
2023-10-16T15:29:18.421Z,2.37
2023-10-16T15:31:45.827Z,2.20
2023-10-16T15:34:14.275Z,2.27
2023-10-16T15:36:41.673Z,2.30
2023-10-16T15:39:16.926Z,2.57
2023-10-16T15:41:47.594Z,2.67
2023-10-16T15:44:14.898Z,2.20
2023-10-16T15:46:42.394Z,2.30
2023-10-16T15:49:09.827Z,2.10
2023-10-16T15:51:38.299Z,2.40
2023-10-16T15:54:06.165Z,2.30
2023-10-16T15:56:33.663Z,2.10
2023-10-16T15:59:01.585Z,2.23
2023-10-16T16:01:29.208Z,2.20
2023-10-16T16:04:02.801Z,2.27
2023-10-16T16:09:21.402Z,2.37
2023-10-16T16:11:48.703Z,2.23
2023-10-16T16:14:19.242Z,2.17
2023-10-16T16:16:52.365Z,2.10
2023-10-16T16:19:24.409Z,2.37
2023-10-16T16:21:52.673Z,2.33
2023-10-16T16:24:20.787Z,2.10
2023-10-16T16:26:48.069Z,2.50
2023-10-16T16:29:15.804Z,1.97
2023-10-16T16:31:43.190Z,2.10
2023-10-16T16:34:10.536Z,2.23
2023-10-16T16:36:41.389Z,2.13
2023-10-16T16:39:13.940Z,2.30
2023-10-16T16:41:41.984Z,2.33
2023-10-16T16:44:09.365Z,2.30
2023-10-16T16:46:36.719Z,2.20
2023-10-16T16:49:04.119Z,2.33
2023-10-16T16:51:31.333Z,3.13
2023-10-16T16:53:59.290Z,2.43
2023-10-16T16:56:26.575Z,2.37
2023-10-16T16:58:55.076Z,2.27
2023-10-16T17:01:22.385Z,2.10
2023-10-16T17:03:51.001Z,2.77
2023-10-16T17:06:18.414Z,2.57
2023-10-16T17:08:45.953Z,2.30
2023-10-16T17:11:14.811Z,2.20
2023-10-16T17:13:42.196Z,2.40
2023-10-16T17:16:09.627Z,2.30
2023-10-16T17:18:37.784Z,2.27
2023-10-16T17:21:06.597Z,2.20
2023-10-16T17:23:33.917Z,2.50
2023-10-16T17:26:01.221Z,2.30
2023-10-16T17:28:28.519Z,2.40
2023-10-16T17:30:55.814Z,2.43
2023-10-16T17:33:23.830Z,2.40
2023-10-16T17:36:00.879Z,2.33
2023-10-16T17:38:29.004Z,2.27
2023-10-16T17:40:56.378Z,2.57
2023-10-16T17:43:25.176Z,2.57
2023-10-16T17:45:52.715Z,2.77
2023-10-16T17:48:20.358Z,2.50
2023-10-16T17:50:47.732Z,3.43
2023-10-16T17:53:15.378Z,3.33
2023-10-16T17:55:43.052Z,2.77
2023-10-16T17:58:11.048Z,2.70
2023-10-16T18:00:41.314Z,2.97
2023-10-16T18:03:08.997Z,2.87
2023-10-16T18:05:36.277Z,2.73
2023-10-16T18:08:10.294Z,2.60
2023-10-16T18:10:45.731Z,3.17
2023-10-16T18:13:16.571Z,2.50
2023-10-16T18:15:51.567Z,2.63
2023-10-16T18:18:19.746Z,4.07
2023-10-16T18:20:50.423Z,2.60
2023-10-16T18:23:20.778Z,2.63
2023-10-16T18:25:48.421Z,2.70
2023-10-16T18:28:15.748Z,2.60
2023-10-16T18:30:44.322Z,2.77
2023-10-16T18:33:12.759Z,2.40
2023-10-16T18:35:40.329Z,2.63
2023-10-16T18:38:11.276Z,3.73
2023-10-16T18:40:44.566Z,2.93
2023-10-16T18:43:13.127Z,3.33
2023-10-16T18:45:41.927Z,3.73
2023-10-16T18:48:09.930Z,2.70
2023-10-16T18:50:37.374Z,2.87
2023-10-16T18:53:05.233Z,2.50
2023-10-16T18:55:32.852Z,2.60
2023-10-16T18:58:00.245Z,2.97
2023-10-16T19:00:27.778Z,2.53
2023-10-16T19:02:58.016Z,3.13
2023-10-16T19:05:27.421Z,2.70
2023-10-16T19:07:54.982Z,3.93
2023-10-16T19:10:24.673Z,2.60
2023-10-16T19:12:52.534Z,3.07
2023-10-16T19:15:20.826Z,3.57
2023-10-16T19:17:49.877Z,2.80
2023-10-16T19:20:17.268Z,2.50
2023-10-16T19:22:45.225Z,3.00
2023-10-16T19:25:12.696Z,2.60
2023-10-16T19:27:40.280Z,3.43
2023-10-16T19:30:11.245Z,2.70
2023-10-16T19:32:45.693Z,4.63
2023-10-16T19:35:16.112Z,2.50
2023-10-16T19:37:43.833Z,2.77
2023-10-16T19:40:14.446Z,3.77
2023-10-16T19:42:47.750Z,2.47
2023-10-16T19:45:15.968Z,3.30
2023-10-16T19:47:43.904Z,3.03
2023-10-16T19:50:11.702Z,2.97
2023-10-16T19:52:40.417Z,3.13
2023-10-16T19:55:12.093Z,3.10
2023-10-16T19:57:40.906Z,3.10
2023-10-16T20:00:22.653Z,2.80
2023-10-16T20:02:51.091Z,2.77
2023-10-16T20:05:20.119Z,2.80
2023-10-16T20:07:48.458Z,2.80
2023-10-16T20:10:17.132Z,2.80
2023-10-16T20:12:48.626Z,2.70
2023-10-16T20:15:19.496Z,2.80
2023-10-16T20:17:48.671Z,2.77
2023-10-16T20:20:26.237Z,2.80
2023-10-16T20:23:03.852Z,3.00
2023-10-16T20:25:45.265Z,2.87
2023-10-16T20:28:14.834Z,3.27
2023-10-16T20:30:48.200Z,2.70
2023-10-16T20:33:17.523Z,4.87
2023-10-16T20:35:46.712Z,2.90
2023-10-16T20:38:16.571Z,3.20
2023-10-16T20:40:43.955Z,3.00
2023-10-16T20:43:14.304Z,4.20
2023-10-16T20:45:41.879Z,2.80
2023-10-16T20:48:11.250Z,2.80
2023-10-16T20:50:38.606Z,3.27
2023-10-16T20:53:06.087Z,2.97
2023-10-16T20:55:39.844Z,3.40
2023-10-16T20:58:07.052Z,3.03
2023-10-16T21:00:34.284Z,4.60
2023-10-16T21:03:05.048Z,3.43
2023-10-16T21:05:34.263Z,2.90
2023-10-16T21:08:02.774Z,3.40
2023-10-16T21:10:31.078Z,2.80
2023-10-16T21:12:58.637Z,3.10
2023-10-16T21:15:25.924Z,3.10
2023-10-16T21:17:57.370Z,3.53
2023-10-16T21:20:25.044Z,2.73
2023-10-16T21:22:54.180Z,3.63
2023-10-16T21:25:25.664Z,2.70
2023-10-16T21:27:56.069Z,2.83
2023-10-16T21:30:24.335Z,3.80
2023-10-16T21:32:53.111Z,2.80
2023-10-16T21:35:24.214Z,3.00
2023-10-16T21:37:52.011Z,2.80
2023-10-16T21:40:19.462Z,2.80
2023-10-16T21:42:48.098Z,2.80
2023-10-16T21:45:16.685Z,2.70
2023-10-16T21:47:45.327Z,2.83
2023-10-16T21:50:12.858Z,3.27
2023-10-16T21:52:40.114Z,2.70
2023-10-16T21:55:07.850Z,3.00
2023-10-16T21:57:35.494Z,3.23
2023-10-16T22:00:12.384Z,2.70
2023-10-16T22:02:40.217Z,3.10
2023-10-16T22:05:13.082Z,3.17
2023-10-16T22:07:40.972Z,3.17
2023-10-16T22:10:11.356Z,3.17
2023-10-16T22:12:39.240Z,2.80
2023-10-16T22:15:12.005Z,3.40
2023-10-16T22:17:39.756Z,3.13
2023-10-16T22:20:10.368Z,2.97
2023-10-16T22:22:37.834Z,2.70
2023-10-16T22:25:06.043Z,3.13
2023-10-16T22:27:33.650Z,2.87
2023-10-16T22:30:01.319Z,3.40
2023-10-16T22:32:28.807Z,2.70
2023-10-16T22:34:56.060Z,2.90
2023-10-16T22:37:23.842Z,3.53
2023-10-16T22:39:51.724Z,2.80
2023-10-16T22:42:19.197Z,3.27
2023-10-16T22:44:46.521Z,3.10
2023-10-16T22:47:14.743Z,2.93
2023-10-16T22:49:42.917Z,2.90
2023-10-16T22:52:15.487Z,3.07
2023-10-16T22:54:44.656Z,3.13
2023-10-16T22:57:12.164Z,3.27
2023-10-16T22:59:41.246Z,3.10
2023-10-16T23:02:09.501Z,3.13
2023-10-16T23:04:42.213Z,3.00
2023-10-16T23:07:10.001Z,3.00
2023-10-16T23:09:44.677Z,3.30
2023-10-16T23:12:15.211Z,3.10
2023-10-16T23:14:43.116Z,3.00
2023-10-16T23:17:11.175Z,2.90
2023-10-16T23:19:39.148Z,3.10
2023-10-16T23:22:06.938Z,3.20
2023-10-16T23:24:35.685Z,3.37
2023-10-16T23:27:07.382Z,2.80
2023-10-16T23:29:35.120Z,3.10
2023-10-16T23:32:05.481Z,2.80
2023-10-16T23:34:33.098Z,3.10
2023-10-16T23:37:14.197Z,3.30
2023-10-16T23:39:48.087Z,2.97
2023-10-16T23:42:15.573Z,3.27
2023-10-16T23:44:42.944Z,2.97
2023-10-16T23:47:13.027Z,2.77
2023-10-16T23:49:46.994Z,3.00
2023-10-16T23:52:37.146Z,3.17
2023-10-16T23:55:14.973Z,3.00
2023-10-16T23:57:51.590Z,3.33
